Forks, WA

10:34 PM PST on February 13, 2016 (GMT -0800)
Quillayute | | Change Station
CLOSE
Current Station
Airport
Location: Quillayute,
Elevation: 194 ft
Nearby Weather Stations

Elev 194 ft 47.94 °N, 124.56 °W | Updated 4 minutes ago

Rain
Rain
48 °F
Feels Like 48 °F
N
4
Wind Variable Wind from Variable

Today
High -- | Low -- °F
--% Chance of Precip.
Yesterday
High -- | Low -- °F
Precip. -- in
Pressure 30.06 in
Visibility 2.0 miles
Clouds Overcast 700 ft
Dew Point 47 °F
Humidity 96%
Rainfall 1.90 in
Snow Depth Not available.
7:27 AM 5:36 PM
Waxing Crescent, 38% visible
SPECI KUIL 140630Z AUTO VRB03KT 2SM BR OVC007 09/08 A3006 RMK AO2 RAE26 P0001 T00890083
Pressure 30.06 in
Visibility 2.0 miles
Clouds Overcast 700 ft
Dew Point 47 °F
Humidity 96%
Rainfall 1.90 in
Snow Depth Not available.
7:27 AM 5:36 PM
Waxing Crescent, 38% visible
SPECI KUIL 140630Z AUTO VRB03KT 2SM BR OVC007 09/08 A3006 RMK AO2 RAE26 P0001 T00890083

10-Day Weather Forecast

Almanac

Astronomy

Feb. 13, 2016 Rise Set
Actual Time
Civil Twilight
Nautical Twilight
Astronomical Twilight
Moon
Length of Visible Light
Length of Day
Tomorrow will be .
, % of the Moon is Illuminated

Today's Extremes

State Highs State Lows

Community

WunderPhotos

Upload Photos

1,892,757 photos uploaded!

WunderBlog® & News

Nearby

Air Quality

  Air Quality AQ Index Pollutant
Not available.

Snow Depth

Station Depth Elevation

Earthquake Activity

City Distance Mag. Time & Date
Minimum magnitude displayed is 2.5.

Coastal Water Temperatures

Place Temperature

Stations

Nearby Weather Stations

Station Location Temp. Windchill Dew Point Humidity Wind Precip. Elev Updated Type
                   

Watches & Warnings

There are currently no watches in effect.